Impacts TAF Board
For situational awareness. Not to be used for flight planning purposes.
IDs:

KBWI - Baltimore-Washington, MD, US

Issued at 1607 UTC 01 Mar 2021
Updated at 1626 UTC 01 Mar 2021
Potential Impact None Slight Moderate High
Time1614Z 01/17Z 01/18Z 01/19Z 01/20Z 01/21Z 01/22Z 01/23Z 02/00Z 02/01Z 02/02Z 02/03Z 02/04Z 02/05Z>>
Type OBS PRVL PRVL PRVL PRVL PRVL PRVL PRVL PRVL PRVL PRVL PRVL PRVL PRVL
VIS 4 >6 >6 >6 >6 >6 >6 >6 >6 >6 >6 >6 >6 >6
CIG 37 60 60 150 150 150 150 -- -- -- -- -- -- --
Cover OVC OVC OVC BKN BKN BKN BKN SCT SCT SCT SCT SCT SCT SCT
FltCat MVFR VFR VFR VFR VFR VFR VFR VFR VFR VFR VFR VFR VFR VFR
WX -RA BR -- -- -- -- -- -- -- -- -- -- -- -- --
WDir 280 310 310 310 310 310 310 300 300 300 300 300 300 300
WSpd 10 16 16 18 18 18 18 16 16 16 16 16 16 16
WGst -- 33 33 40 40 40 40 40 40 40 40 40 40 40
Raw TAF
KBWI 011607Z 0116/0218 26009KT 4SM BR BKN016 OVC030
  FM011700 31016G33KT P6SM SCT050 OVC060
  FM011900 31018G40KT P6SM SCT110 BKN150
  FM012300 30016G40KT P6SM FEW045 SCT250
  FM020700 31014G28KT P6SM FEW250


Raw METAR
KBWI 011614Z 28010KT 4SM -RA BR FEW006 SCT020 OVC037 11/09 A2973 RMK AO2 P0004 T01060089
KBWI 011557Z 29011G18KT 2 1/2SM R10/4500VP6000FT -RA BR SCT006 BKN018 OVC050 09/08 A2973 RMK AO2 PRESRR P0000 T00940078
KBWI 011554Z 29013G18KT 4SM -RA BR SCT006 BKN047 OVC060 10/08 A2973 RMK AO2 RAB50 PRESRR SLP069 VIS NW 2 P0000 T01000083
KBWI 011454Z 25005KT 5SM BR SCT006 BKN065 OVC120 09/07 A2971 RMK AO2 SLP062 60003 T00890072 55004
KBWI 011424Z 27003KT 4SM BR BKN006 OVC100 08/07 A2970 RMK AO2 T00830067
KBWI 011354Z 00000KT 5SM BR FEW006 BKN065 OVC100 08/07 A2969 RMK AO2 RAE42 SLP053 P0001 T00780067

METAR Board
Radar Display
Forecast Discussion
For situational awareness. Not to be used for flight planning purposes.